sensor_id;sensor_type;location;lat;lon;timestamp;P1;durP1;ratioP1;P2;durP2;ratioP2
47599;SDS011;33323;52.124;6.018;2023-08-06T00:01:49;13.65;;;8.00;;
47599;SDS011;33323;52.124;6.018;2023-08-06T00:04:18;14.50;;;7.57;;
47599;SDS011;33323;52.124;6.018;2023-08-06T00:06:45;11.40;;;8.13;;
47599;SDS011;33323;52.124;6.018;2023-08-06T00:09:13;11.13;;;7.93;;
47599;SDS011;33323;52.124;6.018;2023-08-06T00:11:40;12.77;;;7.68;;
47599;SDS011;33323;52.124;6.018;2023-08-06T00:14:07;12.23;;;7.50;;
47599;SDS011;33323;52.124;6.018;2023-08-06T00:16:34;10.80;;;7.20;;
47599;SDS011;33323;52.124;6.018;2023-08-06T00:19:01;16.42;;;9.60;;
47599;SDS011;33323;52.124;6.018;2023-08-06T00:21:28;10.80;;;8.43;;
47599;SDS011;33323;52.124;6.018;2023-08-06T00:23:55;14.32;;;9.50;;
47599;SDS011;33323;52.124;6.018;2023-08-06T00:26:22;12.52;;;8.65;;
47599;SDS011;33323;52.124;6.018;2023-08-06T00:28:50;11.95;;;8.20;;
47599;SDS011;33323;52.124;6.018;2023-08-06T00:31:18;14.13;;;8.52;;
47599;SDS011;33323;52.124;6.018;2023-08-06T00:33:45;13.45;;;9.05;;
47599;SDS011;33323;52.124;6.018;2023-08-06T00:36:12;13.15;;;8.43;;
47599;SDS011;33323;52.124;6.018;2023-08-06T00:38:39;12.13;;;8.88;;
47599;SDS011;33323;52.124;6.018;2023-08-06T00:41:08;14.65;;;9.68;;
47599;SDS011;33323;52.124;6.018;2023-08-06T00:43:35;12.50;;;9.32;;
47599;SDS011;33323;52.124;6.018;2023-08-06T00:46:02;13.68;;;8.90;;
47599;SDS011;33323;52.124;6.018;2023-08-06T00:48:30;13.73;;;8.88;;
47599;SDS011;33323;52.124;6.018;2023-08-06T00:50:57;13.48;;;9.05;;
47599;SDS011;33323;52.124;6.018;2023-08-06T00:53:24;13.93;;;9.65;;
47599;SDS011;33323;52.124;6.018;2023-08-06T00:55:51;15.15;;;9.13;;
47599;SDS011;33323;52.124;6.018;2023-08-06T00:58:19;13.50;;;9.27;;
47599;SDS011;33323;52.124;6.018;2023-08-06T01:00:46;14.68;;;9.38;;
47599;SDS011;33323;52.124;6.018;2023-08-06T01:03:14;13.10;;;9.07;;
47599;SDS011;33323;52.124;6.018;2023-08-06T01:05:42;13.55;;;9.45;;
47599;SDS011;33323;52.124;6.018;2023-08-06T01:08:21;11.38;;;8.63;;
47599;SDS011;33323;52.124;6.018;2023-08-06T01:14:27;13.40;;;9.43;;
47599;SDS011;33323;52.124;6.018;2023-08-06T01:17:01;14.73;;;8.57;;
47599;SDS011;33323;52.124;6.018;2023-08-06T01:19:29;13.63;;;9.02;;
47599;SDS011;33323;52.124;6.018;2023-08-06T01:21:56;16.70;;;9.52;;
47599;SDS011;33323;52.124;6.018;2023-08-06T01:24:23;16.00;;;10.20;;
47599;SDS011;33323;52.124;6.018;2023-08-06T01:29:53;13.70;;;9.65;;
47599;SDS011;33323;52.124;6.018;2023-08-06T01:32:29;14.48;;;8.63;;
47599;SDS011;33323;52.124;6.018;2023-08-06T01:35:02;13.57;;;9.90;;
47599;SDS011;33323;52.124;6.018;2023-08-06T01:37:30;15.38;;;10.50;;
47599;SDS011;33323;52.124;6.018;2023-08-06T01:40:05;15.45;;;10.13;;
47599;SDS011;33323;52.124;6.018;2023-08-06T01:42:41;14.98;;;9.77;;
47599;SDS011;33323;52.124;6.018;2023-08-06T01:45:08;13.48;;;9.52;;
47599;SDS011;33323;52.124;6.018;2023-08-06T01:47:36;14.63;;;10.45;;
47599;SDS011;33323;52.124;6.018;2023-08-06T01:50:03;19.27;;;11.70;;
47599;SDS011;33323;52.124;6.018;2023-08-06T01:52:30;15.00;;;10.35;;
47599;SDS011;33323;52.124;6.018;2023-08-06T01:54:57;17.20;;;10.77;;
47599;SDS011;33323;52.124;6.018;2023-08-06T01:57:24;14.10;;;10.45;;
47599;SDS011;33323;52.124;6.018;2023-08-06T01:59:51;15.85;;;10.73;;
47599;SDS011;33323;52.124;6.018;2023-08-06T02:02:18;15.18;;;11.30;;
47599;SDS011;33323;52.124;6.018;2023-08-06T02:04:46;13.82;;;10.60;;
47599;SDS011;33323;52.124;6.018;2023-08-06T02:07:13;15.25;;;10.93;;
47599;SDS011;33323;52.124;6.018;2023-08-06T02:09:40;16.52;;;11.70;;
47599;SDS011;33323;52.124;6.018;2023-08-06T02:12:07;21.67;;;11.40;;
47599;SDS011;33323;52.124;6.018;2023-08-06T02:14:35;19.67;;;11.65;;
47599;SDS011;33323;52.124;6.018;2023-08-06T02:17:01;21.95;;;11.88;;
47599;SDS011;33323;52.124;6.018;2023-08-06T02:19:29;18.10;;;12.13;;
47599;SDS011;33323;52.124;6.018;2023-08-06T02:21:56;19.08;;;11.70;;
47599;SDS011;33323;52.124;6.018;2023-08-06T02:24:23;17.23;;;11.95;;
47599;SDS011;33323;52.124;6.018;2023-08-06T02:26:50;17.38;;;11.32;;
47599;SDS011;33323;52.124;6.018;2023-08-06T02:29:18;17.00;;;11.32;;
47599;SDS011;33323;52.124;6.018;2023-08-06T02:31:45;17.15;;;11.50;;
47599;SDS011;33323;52.124;6.018;2023-08-06T02:34:12;17.23;;;10.43;;
47599;SDS011;33323;52.124;6.018;2023-08-06T02:36:39;16.05;;;11.77;;
47599;SDS011;33323;52.124;6.018;2023-08-06T02:39:06;17.05;;;11.38;;
47599;SDS011;33323;52.124;6.018;2023-08-06T02:41:34;14.15;;;10.68;;
47599;SDS011;33323;52.124;6.018;2023-08-06T02:44:01;17.88;;;12.18;;
47599;SDS011;33323;52.124;6.018;2023-08-06T02:46:28;16.15;;;10.98;;
47599;SDS011;33323;52.124;6.018;2023-08-06T02:48:55;14.73;;;10.68;;
47599;SDS011;33323;52.124;6.018;2023-08-06T02:51:22;15.25;;;10.38;;
47599;SDS011;33323;52.124;6.018;2023-08-06T02:53:49;14.98;;;10.52;;
47599;SDS011;33323;52.124;6.018;2023-08-06T02:56:17;18.52;;;10.57;;
47599;SDS011;33323;52.124;6.018;2023-08-06T02:59:04;16.73;;;11.45;;
47599;SDS011;33323;52.124;6.018;2023-08-06T03:01:49;21.75;;;11.57;;
47599;SDS011;33323;52.124;6.018;2023-08-06T03:04:24;19.07;;;11.37;;
47599;SDS011;33323;52.124;6.018;2023-08-06T03:06:51;13.80;;;10.38;;
47599;SDS011;33323;52.124;6.018;2023-08-06T03:09:22;14.60;;;11.15;;
47599;SDS011;33323;52.124;6.018;2023-08-06T03:11:50;15.75;;;11.32;;
47599;SDS011;33323;52.124;6.018;2023-08-06T03:14:18;17.30;;;11.75;;
47599;SDS011;33323;52.124;6.018;2023-08-06T03:16:45;13.98;;;10.27;;
47599;SDS011;33323;52.124;6.018;2023-08-06T03:19:15;15.77;;;10.35;;
47599;SDS011;33323;52.124;6.018;2023-08-06T03:21:43;18.52;;;12.23;;
47599;SDS011;33323;52.124;6.018;2023-08-06T03:24:12;15.00;;;11.82;;
47599;SDS011;33323;52.124;6.018;2023-08-06T03:26:41;16.75;;;11.95;;
47599;SDS011;33323;52.124;6.018;2023-08-06T03:29:10;17.15;;;12.35;;
47599;SDS011;33323;52.124;6.018;2023-08-06T03:31:37;15.48;;;11.07;;
47599;SDS011;33323;52.124;6.018;2023-08-06T03:34:05;15.98;;;11.77;;
47599;SDS011;33323;52.124;6.018;2023-08-06T03:36:32;18.45;;;12.00;;
47599;SDS011;33323;52.124;6.018;2023-08-06T03:39:00;19.77;;;12.98;;
47599;SDS011;33323;52.124;6.018;2023-08-06T03:41:29;14.88;;;11.55;;
47599;SDS011;33323;52.124;6.018;2023-08-06T03:43:57;21.27;;;11.63;;
47599;SDS011;33323;52.124;6.018;2023-08-06T03:46:25;15.45;;;11.15;;
47599;SDS011;33323;52.124;6.018;2023-08-06T03:48:53;15.52;;;12.52;;
47599;SDS011;33323;52.124;6.018;2023-08-06T03:51:20;17.00;;;11.52;;
47599;SDS011;33323;52.124;6.018;2023-08-06T03:53:48;17.20;;;11.35;;
47599;SDS011;33323;52.124;6.018;2023-08-06T03:56:15;18.85;;;11.65;;
47599;SDS011;33323;52.124;6.018;2023-08-06T03:58:42;13.38;;;10.85;;
47599;SDS011;33323;52.124;6.018;2023-08-06T04:01:09;16.85;;;11.55;;
47599;SDS011;33323;52.124;6.018;2023-08-06T04:03:42;18.88;;;11.55;;
47599;SDS011;33323;52.124;6.018;2023-08-06T04:06:10;17.92;;;11.70;;
47599;SDS011;33323;52.124;6.018;2023-08-06T04:08:37;17.45;;;11.25;;
47599;SDS011;33323;52.124;6.018;2023-08-06T04:11:04;17.05;;;11.68;;
47599;SDS011;33323;52.124;6.018;2023-08-06T04:13:31;21.17;;;12.38;;
47599;SDS011;33323;52.124;6.018;2023-08-06T04:16:02;20.63;;;12.82;;
47599;SDS011;33323;52.124;6.018;2023-08-06T04:18:31;20.45;;;13.07;;
47599;SDS011;33323;52.124;6.018;2023-08-06T04:20:58;18.20;;;11.93;;
47599;SDS011;33323;52.124;6.018;2023-08-06T04:23:25;18.90;;;12.85;;
47599;SDS011;33323;52.124;6.018;2023-08-06T04:25:56;18.63;;;12.90;;
47599;SDS011;33323;52.124;6.018;2023-08-06T04:28:27;21.42;;;13.40;;
47599;SDS011;33323;52.124;6.018;2023-08-06T04:30:54;22.83;;;14.35;;
47599;SDS011;33323;52.124;6.018;2023-08-06T04:33:21;22.95;;;14.10;;
47599;SDS011;33323;52.124;6.018;2023-08-06T04:35:53;20.63;;;13.07;;
47599;SDS011;33323;52.124;6.018;2023-08-06T04:38:24;20.23;;;13.32;;
47599;SDS011;33323;52.124;6.018;2023-08-06T04:40:52;21.25;;;14.15;;
47599;SDS011;33323;52.124;6.018;2023-08-06T04:43:21;18.88;;;13.43;;
47599;SDS011;33323;52.124;6.018;2023-08-06T04:45:49;20.40;;;13.35;;
47599;SDS011;33323;52.124;6.018;2023-08-06T04:48:18;20.30;;;13.88;;
47599;SDS011;33323;52.124;6.018;2023-08-06T04:50:45;22.38;;;14.43;;
47599;SDS011;33323;52.124;6.018;2023-08-06T04:53:14;19.30;;;13.93;;
47599;SDS011;33323;52.124;6.018;2023-08-06T04:55:41;22.77;;;13.50;;
47599;SDS011;33323;52.124;6.018;2023-08-06T04:58:09;19.95;;;12.38;;
47599;SDS011;33323;52.124;6.018;2023-08-06T05:00:36;20.23;;;13.27;;
47599;SDS011;33323;52.124;6.018;2023-08-06T05:03:04;21.05;;;12.65;;
47599;SDS011;33323;52.124;6.018;2023-08-06T05:05:32;18.25;;;12.68;;
47599;SDS011;33323;52.124;6.018;2023-08-06T05:07:59;19.10;;;13.73;;
47599;SDS011;33323;52.124;6.018;2023-08-06T05:10:26;21.05;;;13.50;;
47599;SDS011;33323;52.124;6.018;2023-08-06T05:12:54;20.52;;;13.63;;
47599;SDS011;33323;52.124;6.018;2023-08-06T05:15:22;20.15;;;13.68;;
47599;SDS011;33323;52.124;6.018;2023-08-06T05:17:51;20.60;;;13.95;;
47599;SDS011;33323;52.124;6.018;2023-08-06T05:20:18;19.13;;;12.18;;
47599;SDS011;33323;52.124;6.018;2023-08-06T05:22:47;24.27;;;13.82;;
47599;SDS011;33323;52.124;6.018;2023-08-06T05:25:14;21.95;;;12.38;;
47599;SDS011;33323;52.124;6.018;2023-08-06T05:27:41;19.92;;;13.50;;
47599;SDS011;33323;52.124;6.018;2023-08-06T05:30:08;17.27;;;12.93;;
47599;SDS011;33323;52.124;6.018;2023-08-06T05:32:36;20.25;;;12.77;;
47599;SDS011;33323;52.124;6.018;2023-08-06T05:35:03;17.00;;;12.52;;
47599;SDS011;33323;52.124;6.018;2023-08-06T05:37:31;18.20;;;11.93;;
47599;SDS011;33323;52.124;6.018;2023-08-06T05:39:58;16.50;;;12.77;;
47599;SDS011;33323;52.124;6.018;2023-08-06T05:42:25;27.25;;;11.98;;
47599;SDS011;33323;52.124;6.018;2023-08-06T05:44:52;19.42;;;13.40;;
47599;SDS011;33323;52.124;6.018;2023-08-06T05:47:19;16.45;;;12.75;;
47599;SDS011;33323;52.124;6.018;2023-08-06T05:49:46;15.82;;;12.15;;
47599;SDS011;33323;52.124;6.018;2023-08-06T05:52:13;20.80;;;12.55;;
47599;SDS011;33323;52.124;6.018;2023-08-06T05:54:40;20.88;;;12.15;;
47599;SDS011;33323;52.124;6.018;2023-08-06T05:57:08;14.77;;;11.23;;
47599;SDS011;33323;52.124;6.018;2023-08-06T05:59:35;16.83;;;11.20;;
47599;SDS011;33323;52.124;6.018;2023-08-06T06:02:03;17.45;;;12.30;;
47599;SDS011;33323;52.124;6.018;2023-08-06T06:04:31;16.25;;;11.88;;
47599;SDS011;33323;52.124;6.018;2023-08-06T06:06:59;14.82;;;11.57;;
47599;SDS011;33323;52.124;6.018;2023-08-06T06:09:26;14.30;;;11.10;;
47599;SDS011;33323;52.124;6.018;2023-08-06T06:11:54;16.08;;;12.45;;
47599;SDS011;33323;52.124;6.018;2023-08-06T06:14:22;16.08;;;11.75;;
47599;SDS011;33323;52.124;6.018;2023-08-06T06:16:49;18.65;;;12.27;;
47599;SDS011;33323;52.124;6.018;2023-08-06T06:19:17;16.88;;;12.10;;
47599;SDS011;33323;52.124;6.018;2023-08-06T06:21:44;15.00;;;12.23;;
47599;SDS011;33323;52.124;6.018;2023-08-06T06:24:11;15.65;;;12.55;;
47599;SDS011;33323;52.124;6.018;2023-08-06T06:26:39;16.13;;;12.73;;
47599;SDS011;33323;52.124;6.018;2023-08-06T06:29:06;17.77;;;12.52;;
47599;SDS011;33323;52.124;6.018;2023-08-06T06:31:33;15.57;;;11.73;;
47599;SDS011;33323;52.124;6.018;2023-08-06T06:34:01;17.88;;;13.90;;
47599;SDS011;33323;52.124;6.018;2023-08-06T06:36:28;18.73;;;13.73;;
47599;SDS011;33323;52.124;6.018;2023-08-06T06:38:55;19.50;;;14.50;;
47599;SDS011;33323;52.124;6.018;2023-08-06T06:41:22;20.95;;;14.20;;
47599;SDS011;33323;52.124;6.018;2023-08-06T06:43:50;20.25;;;14.43;;
47599;SDS011;33323;52.124;6.018;2023-08-06T06:46:17;21.40;;;14.23;;
47599;SDS011;33323;52.124;6.018;2023-08-06T06:48:45;20.85;;;15.25;;
47599;SDS011;33323;52.124;6.018;2023-08-06T06:51:12;22.60;;;15.10;;
47599;SDS011;33323;52.124;6.018;2023-08-06T06:53:39;18.02;;;13.45;;
47599;SDS011;33323;52.124;6.018;2023-08-06T06:56:07;21.88;;;14.60;;
47599;SDS011;33323;52.124;6.018;2023-08-06T06:58:34;24.50;;;15.32;;
47599;SDS011;33323;52.124;6.018;2023-08-06T07:01:01;20.10;;;14.93;;
47599;SDS011;33323;52.124;6.018;2023-08-06T07:03:29;20.05;;;15.00;;
47599;SDS011;33323;52.124;6.018;2023-08-06T07:05:57;19.80;;;13.43;;
47599;SDS011;33323;52.124;6.018;2023-08-06T07:08:26;22.67;;;13.40;;
47599;SDS011;33323;52.124;6.018;2023-08-06T07:11:04;19.70;;;13.48;;
47599;SDS011;33323;52.124;6.018;2023-08-06T07:13:33;19.73;;;13.82;;
47599;SDS011;33323;52.124;6.018;2023-08-06T07:16:01;23.45;;;15.75;;
47599;SDS011;33323;52.124;6.018;2023-08-06T07:18:29;20.23;;;13.60;;
47599;SDS011;33323;52.124;6.018;2023-08-06T07:20:57;18.67;;;13.93;;
47599;SDS011;33323;52.124;6.018;2023-08-06T07:23:25;17.67;;;13.70;;
47599;SDS011;33323;52.124;6.018;2023-08-06T07:25:52;18.48;;;13.48;;
47599;SDS011;33323;52.124;6.018;2023-08-06T07:28:20;18.27;;;13.52;;
47599;SDS011;33323;52.124;6.018;2023-08-06T07:30:47;21.58;;;15.27;;
47599;SDS011;33323;52.124;6.018;2023-08-06T07:33:14;24.02;;;14.30;;
47599;SDS011;33323;52.124;6.018;2023-08-06T07:35:41;17.40;;;13.65;;
47599;SDS011;33323;52.124;6.018;2023-08-06T07:38:09;16.95;;;12.73;;
47599;SDS011;33323;52.124;6.018;2023-08-06T07:40:37;16.98;;;13.20;;
47599;SDS011;33323;52.124;6.018;2023-08-06T07:43:05;18.02;;;13.95;;
47599;SDS011;33323;52.124;6.018;2023-08-06T07:45:35;17.95;;;13.15;;
47599;SDS011;33323;52.124;6.018;2023-08-06T07:48:02;20.70;;;13.57;;
47599;SDS011;33323;52.124;6.018;2023-08-06T07:50:31;18.90;;;13.82;;
47599;SDS011;33323;52.124;6.018;2023-08-06T07:52:58;16.77;;;13.00;;
47599;SDS011;33323;52.124;6.018;2023-08-06T07:55:26;18.05;;;13.23;;
47599;SDS011;33323;52.124;6.018;2023-08-06T07:57:53;16.73;;;12.40;;
47599;SDS011;33323;52.124;6.018;2023-08-06T08:00:20;19.15;;;13.90;;
47599;SDS011;33323;52.124;6.018;2023-08-06T08:02:48;19.17;;;13.60;;
47599;SDS011;33323;52.124;6.018;2023-08-06T08:05:17;15.98;;;12.05;;
47599;SDS011;33323;52.124;6.018;2023-08-06T08:07:44;14.05;;;11.77;;
47599;SDS011;33323;52.124;6.018;2023-08-06T08:10:12;16.05;;;11.38;;
47599;SDS011;33323;52.124;6.018;2023-08-06T08:12:39;17.52;;;13.02;;
47599;SDS011;33323;52.124;6.018;2023-08-06T08:15:06;15.55;;;12.48;;
47599;SDS011;33323;52.124;6.018;2023-08-06T08:17:34;15.15;;;11.18;;
47599;SDS011;33323;52.124;6.018;2023-08-06T08:20:01;15.88;;;10.65;;
47599;SDS011;33323;52.124;6.018;2023-08-06T08:22:29;17.50;;;11.93;;
47599;SDS011;33323;52.124;6.018;2023-08-06T08:24:56;15.48;;;10.85;;
47599;SDS011;33323;52.124;6.018;2023-08-06T08:27:23;16.05;;;11.60;;
47599;SDS011;33323;52.124;6.018;2023-08-06T08:29:51;15.43;;;11.88;;
47599;SDS011;33323;52.124;6.018;2023-08-06T08:32:18;15.30;;;11.43;;
47599;SDS011;33323;52.124;6.018;2023-08-06T08:34:45;14.27;;;11.07;;
47599;SDS011;33323;52.124;6.018;2023-08-06T08:37:13;12.68;;;10.55;;
47599;SDS011;33323;52.124;6.018;2023-08-06T08:39:40;10.88;;;8.65;;
47599;SDS011;33323;52.124;6.018;2023-08-06T08:42:08;11.90;;;9.57;;
47599;SDS011;33323;52.124;6.018;2023-08-06T08:44:36;13.18;;;9.80;;
47599;SDS011;33323;52.124;6.018;2023-08-06T08:47:07;17.02;;;9.90;;
47599;SDS011;33323;52.124;6.018;2023-08-06T08:49:37;11.82;;;9.18;;
47599;SDS011;33323;52.124;6.018;2023-08-06T08:52:04;12.13;;;8.90;;
47599;SDS011;33323;52.124;6.018;2023-08-06T08:54:37;11.18;;;8.57;;
47599;SDS011;33323;52.124;6.018;2023-08-06T08:57:05;12.57;;;9.23;;
47599;SDS011;33323;52.124;6.018;2023-08-06T08:59:33;13.00;;;9.63;;
47599;SDS011;33323;52.124;6.018;2023-08-06T09:02:00;11.65;;;9.68;;
47599;SDS011;33323;52.124;6.018;2023-08-06T09:04:31;11.05;;;8.32;;
47599;SDS011;33323;52.124;6.018;2023-08-06T09:07:00;11.38;;;8.93;;
47599;SDS011;33323;52.124;6.018;2023-08-06T09:09:30;9.07;;;8.13;;
47599;SDS011;33323;52.124;6.018;2023-08-06T09:12:00;9.45;;;8.20;;
47599;SDS011;33323;52.124;6.018;2023-08-06T09:14:28;9.43;;;8.10;;
47599;SDS011;33323;52.124;6.018;2023-08-06T09:16:56;8.38;;;7.55;;
47599;SDS011;33323;52.124;6.018;2023-08-06T09:19:24;8.93;;;7.70;;
47599;SDS011;33323;52.124;6.018;2023-08-06T09:21:51;9.05;;;8.15;;
47599;SDS011;33323;52.124;6.018;2023-08-06T09:24:20;9.40;;;7.90;;
47599;SDS011;33323;52.124;6.018;2023-08-06T09:26:47;10.00;;;7.38;;
47599;SDS011;33323;52.124;6.018;2023-08-06T09:29:14;11.10;;;8.55;;
47599;SDS011;33323;52.124;6.018;2023-08-06T09:34:17;11.25;;;8.65;;
47599;SDS011;33323;52.124;6.018;2023-08-06T09:36:47;12.15;;;8.23;;
47599;SDS011;33323;52.124;6.018;2023-08-06T09:39:27;9.18;;;7.07;;
47599;SDS011;33323;52.124;6.018;2023-08-06T09:41:56;9.25;;;7.68;;
47599;SDS011;33323;52.124;6.018;2023-08-06T09:44:25;8.88;;;7.53;;
47599;SDS011;33323;52.124;6.018;2023-08-06T09:46:54;8.93;;;7.30;;
47599;SDS011;33323;52.124;6.018;2023-08-06T09:52:00;11.35;;;8.82;;
47599;SDS011;33323;52.124;6.018;2023-08-06T09:54:27;10.15;;;8.32;;
47599;SDS011;33323;52.124;6.018;2023-08-06T09:56:56;10.30;;;8.93;;
47599;SDS011;33323;52.124;6.018;2023-08-06T09:59:24;10.25;;;8.82;;
47599;SDS011;33323;52.124;6.018;2023-08-06T10:01:51;11.63;;;9.15;;
47599;SDS011;33323;52.124;6.018;2023-08-06T10:04:24;12.88;;;10.82;;
47599;SDS011;33323;52.124;6.018;2023-08-06T10:07:00;12.80;;;10.18;;
47599;SDS011;33323;52.124;6.018;2023-08-06T10:09:28;17.48;;;11.60;;
47599;SDS011;33323;52.124;6.018;2023-08-06T10:11:55;15.45;;;12.25;;
47599;SDS011;33323;52.124;6.018;2023-08-06T10:14:32;14.93;;;12.02;;
47599;SDS011;33323;52.124;6.018;2023-08-06T10:17:02;16.98;;;13.77;;
47599;SDS011;33323;52.124;6.018;2023-08-06T10:19:30;16.75;;;13.75;;
47599;SDS011;33323;52.124;6.018;2023-08-06T10:27:34;16.33;;;13.93;;
47599;SDS011;33323;52.124;6.018;2023-08-06T10:32:59;17.95;;;13.82;;
47599;SDS011;33323;52.124;6.018;2023-08-06T10:35:37;17.63;;;14.68;;
47599;SDS011;33323;52.124;6.018;2023-08-06T10:38:17;17.05;;;12.82;;
47599;SDS011;33323;52.124;6.018;2023-08-06T10:40:52;15.63;;;13.23;;
47599;SDS011;33323;52.124;6.018;2023-08-06T10:43:30;13.50;;;11.55;;
47599;SDS011;33323;52.124;6.018;2023-08-06T10:46:50;13.73;;;11.20;;
47599;SDS011;33323;52.124;6.018;2023-08-06T10:48:55;12.82;;;10.98;;
47599;SDS011;33323;52.124;6.018;2023-08-06T10:51:22;13.85;;;10.40;;
47599;SDS011;33323;52.124;6.018;2023-08-06T10:53:49;12.25;;;10.05;;
47599;SDS011;33323;52.124;6.018;2023-08-06T10:56:24;11.65;;;10.07;;
47599;SDS011;33323;52.124;6.018;2023-08-06T10:58:56;12.50;;;9.73;;
47599;SDS011;33323;52.124;6.018;2023-08-06T11:01:23;10.13;;;9.00;;
47599;SDS011;33323;52.124;6.018;2023-08-06T11:03:55;12.95;;;8.55;;
47599;SDS011;33323;52.124;6.018;2023-08-06T11:06:23;11.77;;;9.90;;
47599;SDS011;33323;52.124;6.018;2023-08-06T11:08:52;11.48;;;9.60;;
47599;SDS011;33323;52.124;6.018;2023-08-06T11:11:20;14.57;;;8.65;;
47599;SDS011;33323;52.124;6.018;2023-08-06T11:13:50;10.55;;;8.30;;
47599;SDS011;33323;52.124;6.018;2023-08-06T11:16:18;8.27;;;7.20;;
47599;SDS011;33323;52.124;6.018;2023-08-06T11:18:49;9.80;;;7.80;;
47599;SDS011;33323;52.124;6.018;2023-08-06T11:21:20;8.38;;;7.55;;
47599;SDS011;33323;52.124;6.018;2023-08-06T11:23:48;9.07;;;6.85;;
47599;SDS011;33323;52.124;6.018;2023-08-06T11:26:18;11.75;;;7.82;;
47599;SDS011;33323;52.124;6.018;2023-08-06T11:28:54;10.25;;;6.47;;
47599;SDS011;33323;52.124;6.018;2023-08-06T11:31:21;7.07;;;6.38;;
47599;SDS011;33323;52.124;6.018;2023-08-06T11:33:50;6.55;;;4.47;;
47599;SDS011;33323;52.124;6.018;2023-08-06T11:36:28;5.63;;;2.58;;
47599;SDS011;33323;52.124;6.018;2023-08-06T11:39:07;2.65;;;1.55;;
47599;SDS011;33323;52.124;6.018;2023-08-06T11:41:35;1.40;;;1.13;;
47599;SDS011;33323;52.124;6.018;2023-08-06T11:44:04;2.10;;;1.52;;
47599;SDS011;33323;52.124;6.018;2023-08-06T11:46:52;2.30;;;1.35;;
47599;SDS011;33323;52.124;6.018;2023-08-06T11:54:47;2.03;;;1.10;;
47599;SDS011;33323;52.124;6.018;2023-08-06T11:57:28;2.53;;;0.60;;
47599;SDS011;33323;52.124;6.018;2023-08-06T12:00:05;1.02;;;0.43;;
47599;SDS011;33323;52.124;6.018;2023-08-06T12:02:42;3.47;;;0.95;;
47599;SDS011;33323;52.124;6.018;2023-08-06T12:05:14;3.75;;;0.80;;
47599;SDS011;33323;52.124;6.018;2023-08-06T12:07:44;4.38;;;1.02;;
47599;SDS011;33323;52.124;6.018;2023-08-06T12:10:15;2.92;;;1.05;;
47599;SDS011;33323;52.124;6.018;2023-08-06T12:12:46;1.73;;;1.15;;
47599;SDS011;33323;52.124;6.018;2023-08-06T12:15:13;1.58;;;0.80;;
47599;SDS011;33323;52.124;6.018;2023-08-06T12:17:40;1.20;;;0.77;;
47599;SDS011;33323;52.124;6.018;2023-08-06T12:20:07;1.02;;;0.65;;
47599;SDS011;33323;52.124;6.018;2023-08-06T12:22:35;1.65;;;1.00;;
47599;SDS011;33323;52.124;6.018;2023-08-06T12:25:05;1.60;;;0.93;;
47599;SDS011;33323;52.124;6.018;2023-08-06T12:30:11;1.10;;;0.73;;
47599;SDS011;33323;52.124;6.018;2023-08-06T12:32:39;1.42;;;0.70;;
47599;SDS011;33323;52.124;6.018;2023-08-06T12:35:07;1.58;;;1.10;;
47599;SDS011;33323;52.124;6.018;2023-08-06T12:37:35;1.67;;;0.82;;
47599;SDS011;33323;52.124;6.018;2023-08-06T12:40:05;1.60;;;1.30;;
47599;SDS011;33323;52.124;6.018;2023-08-06T12:42:53;3.35;;;1.20;;
47599;SDS011;33323;52.124;6.018;2023-08-06T12:45:20;1.13;;;0.73;;
47599;SDS011;33323;52.124;6.018;2023-08-06T12:47:48;4.03;;;1.25;;
47599;SDS011;33323;52.124;6.018;2023-08-06T12:50:16;2.10;;;0.93;;
47599;SDS011;33323;52.124;6.018;2023-08-06T12:52:44;2.17;;;1.30;;
47599;SDS011;33323;52.124;6.018;2023-08-06T12:55:11;1.23;;;0.88;;
47599;SDS011;33323;52.124;6.018;2023-08-06T12:57:38;2.20;;;1.30;;
47599;SDS011;33323;52.124;6.018;2023-08-06T13:00:24;2.90;;;1.27;;
47599;SDS011;33323;52.124;6.018;2023-08-06T13:02:54;1.92;;;1.30;;
47599;SDS011;33323;52.124;6.018;2023-08-06T13:05:21;1.92;;;0.95;;
47599;SDS011;33323;52.124;6.018;2023-08-06T13:07:48;2.00;;;1.20;;
47599;SDS011;33323;52.124;6.018;2023-08-06T13:10:15;1.67;;;1.45;;
47599;SDS011;33323;52.124;6.018;2023-08-06T13:12:42;2.53;;;1.38;;
47599;SDS011;33323;52.124;6.018;2023-08-06T13:15:10;1.55;;;1.10;;
47599;SDS011;33323;52.124;6.018;2023-08-06T13:17:37;1.70;;;1.30;;
47599;SDS011;33323;52.124;6.018;2023-08-06T13:20:04;1.70;;;1.17;;
47599;SDS011;33323;52.124;6.018;2023-08-06T13:22:32;3.35;;;2.17;;
47599;SDS011;33323;52.124;6.018;2023-08-06T13:24:59;1.40;;;1.00;;
47599;SDS011;33323;52.124;6.018;2023-08-06T13:27:26;2.20;;;1.60;;
47599;SDS011;33323;52.124;6.018;2023-08-06T13:29:53;1.75;;;1.20;;
47599;SDS011;33323;52.124;6.018;2023-08-06T13:32:20;2.22;;;1.20;;
47599;SDS011;33323;52.124;6.018;2023-08-06T13:34:47;2.50;;;1.55;;
47599;SDS011;33323;52.124;6.018;2023-08-06T13:37:14;2.38;;;1.75;;
47599;SDS011;33323;52.124;6.018;2023-08-06T13:39:41;1.48;;;1.33;;
47599;SDS011;33323;52.124;6.018;2023-08-06T13:42:08;2.63;;;1.23;;
47599;SDS011;33323;52.124;6.018;2023-08-06T13:44:35;3.00;;;1.67;;
47599;SDS011;33323;52.124;6.018;2023-08-06T13:47:02;2.90;;;1.63;;
47599;SDS011;33323;52.124;6.018;2023-08-06T13:49:30;3.08;;;1.80;;
47599;SDS011;33323;52.124;6.018;2023-08-06T13:51:57;5.13;;;1.88;;
47599;SDS011;33323;52.124;6.018;2023-08-06T13:54:41;3.58;;;2.35;;
47599;SDS011;33323;52.124;6.018;2023-08-06T13:57:08;2.65;;;1.85;;
47599;SDS011;33323;52.124;6.018;2023-08-06T13:59:35;3.10;;;1.70;;
47599;SDS011;33323;52.124;6.018;2023-08-06T14:02:02;2.45;;;1.77;;
47599;SDS011;33323;52.124;6.018;2023-08-06T14:04:29;3.58;;;1.70;;
47599;SDS011;33323;52.124;6.018;2023-08-06T14:06:56;3.55;;;1.80;;
47599;SDS011;33323;52.124;6.018;2023-08-06T14:09:23;2.58;;;1.83;;
47599;SDS011;33323;52.124;6.018;2023-08-06T14:11:51;2.60;;;1.73;;
47599;SDS011;33323;52.124;6.018;2023-08-06T14:14:18;4.07;;;1.80;;
47599;SDS011;33323;52.124;6.018;2023-08-06T14:16:46;5.57;;;2.10;;
47599;SDS011;33323;52.124;6.018;2023-08-06T14:19:13;3.65;;;2.10;;
47599;SDS011;33323;52.124;6.018;2023-08-06T14:21:40;4.72;;;2.30;;
47599;SDS011;33323;52.124;6.018;2023-08-06T14:24:07;3.53;;;1.75;;
47599;SDS011;33323;52.124;6.018;2023-08-06T14:26:34;4.88;;;2.55;;
47599;SDS011;33323;52.124;6.018;2023-08-06T14:29:01;3.85;;;2.15;;
47599;SDS011;33323;52.124;6.018;2023-08-06T14:31:28;5.32;;;2.70;;
47599;SDS011;33323;52.124;6.018;2023-08-06T14:33:56;3.25;;;2.08;;
47599;SDS011;33323;52.124;6.018;2023-08-06T14:36:23;4.55;;;2.80;;
47599;SDS011;33323;52.124;6.018;2023-08-06T14:38:50;5.10;;;2.60;;
47599;SDS011;33323;52.124;6.018;2023-08-06T14:41:25;6.93;;;3.67;;
47599;SDS011;33323;52.124;6.018;2023-08-06T14:43:53;5.53;;;2.92;;
47599;SDS011;33323;52.124;6.018;2023-08-06T14:46:20;7.97;;;3.70;;
47599;SDS011;33323;52.124;6.018;2023-08-06T14:48:48;4.97;;;2.88;;
47599;SDS011;33323;52.124;6.018;2023-08-06T14:51:15;3.40;;;2.75;;
47599;SDS011;33323;52.124;6.018;2023-08-06T14:53:42;4.90;;;2.80;;
47599;SDS011;33323;52.124;6.018;2023-08-06T14:56:09;5.18;;;3.05;;
47599;SDS011;33323;52.124;6.018;2023-08-06T14:58:36;4.57;;;2.70;;
47599;SDS011;33323;52.124;6.018;2023-08-06T15:01:03;6.72;;;3.10;;
47599;SDS011;33323;52.124;6.018;2023-08-06T15:03:30;3.78;;;3.05;;
47599;SDS011;33323;52.124;6.018;2023-08-06T15:05:57;7.55;;;3.42;;
47599;SDS011;33323;52.124;6.018;2023-08-06T15:08:25;4.75;;;3.33;;